Aviation Digital Data Service (ADDS)

Output produced by METARs form (1304 UTC 11 December 2018)
found at http://www.aviationweather.gov/metar/data/
 
METAR text: EGPK 111250Z 15003KT 9999 FEW018 SCT028 09/07 Q1020
Conditions at: EGPK (PRESTWICK(CIV/NA, GB) observed 1250 UTC 11 December 2018
Temperature: 9.0°C (48°F)
Dewpoint: 7.0°C (45°F) [RH = 87%]
Pressure (altimeter): 30.12 inches Hg (1020.0 mb)
Winds: from the SSE (150 degrees) at 3 MPH (3 knots; 1.5 m/s)
Visibility: 6 or more miles (10+ km)
Ceiling: at least 12,000 feet AGL
Clouds: few clouds at 1800 feet AGL
scattered clouds at 2800 feet AGL
Weather: no significant weather observed at this time

Forecast for: EGPK (PRESTWICK(CIV/NA, GB)
Text: TAF EGPK 111104Z 1112/1212 12009KT 9999 SCT030
Forecast period: 1200 UTC 11 December 2018 to 1200 UTC 12 December 2018
Forecast type: FROM: standard forecast or significant change
Winds: from the ESE (120 degrees) at 10 MPH (9 knots; 4.6 m/s)
Visibility: 6 or more miles 10+ km)
Ceiling: at least 12,000 feet AGL
Clouds: scattered clouds at 3000 feet AGL
Weather: no significant weather forecast for this period
Text: PROB30
Forecast period: 1200 UTC 11 December 2018 to 0000 UTC 12 December 2018
Forecast type: TEMPORARY: The following changes expected for less than half the time period
Visibility: missing
Ceiling: 1400 feet AGL
Clouds: broken clouds at 1400 feet AGL
Weather: no significant weather forecast for this period